Time;durP1;ratioP1;P1;durP2;ratioP2;P2;SDS_P1;SDS_P2;PMS_P1;PMS_P2;Temp;Humidity;BMP_temperature;BMP_pressure;BME280_temperature;BME280_humidity;BME280_pressure;Samples;Min_cycle;Max_cycle;Signal;HPM_P1;HPM_P2
2023/08/11 00:00:33;;;;;;;0.68;0.52;;;;;;;18.87;64.01;99959.63;5012306;28;20092;-84
2023/08/11 00:02:58;;;;;;;0.75;0.63;;;;;;;18.93;63.88;99968.25;5011434;28;20112;-83
2023/08/11 00:05:24;;;;;;;1.13;1.08;;;;;;;18.85;64.55;99974.88;5011374;28;20110;-83
2023/08/11 00:07:54;;;;;;;1.40;0.50;;;;;;;18.86;64.82;99974.81;5010943;28;20037;-84
2023/08/11 00:10:20;;;;;;;0.63;0.43;;;;;;;18.89;64.58;99971.13;5010956;28;20113;-85
2023/08/11 00:12:47;;;;;;;0.85;0.85;;;;;;;18.64;64.39;99956.16;5011690;28;20100;-84
2023/08/11 00:15:20;;;;;;;0.63;0.63;;;;;;;18.61;64.61;99948.25;5011366;28;20558;-85
2023/08/11 00:17:45;;;;;;;0.50;0.40;;;;;;;18.69;64.90;99967.53;5011243;28;20488;-84
2023/08/11 00:20:12;;;;;;;0.40;0.25;;;;;;;18.76;64.41;99978.78;5010838;28;20034;-85
2023/08/11 00:22:38;;;;;;;1.10;0.85;;;;;;;18.47;64.03;99934.66;5009282;28;20431;-84
2023/08/11 00:25:04;;;;;;;0.45;0.45;;;;;;;18.60;64.07;99959.91;5009599;28;20045;-84
2023/08/11 00:27:29;;;;;;;1.20;0.88;;;;;;;18.49;64.57;99955.03;5011014;28;20034;-84
2023/08/11 00:29:56;;;;;;;0.80;0.80;;;;;;;18.41;64.28;99922.44;5010972;28;20045;-84
2023/08/11 00:32:22;;;;;;;3.63;0.95;;;;;;;18.54;64.59;99942.34;5010618;28;20104;-83
2023/08/11 00:34:47;;;;;;;4.00;1.60;;;;;;;18.69;64.22;99969.31;5010937;28;20474;-82
2023/08/11 00:37:13;;;;;;;0.95;0.60;;;;;;;18.62;64.10;99966.03;5010731;28;20030;-83
2023/08/11 00:39:39;;;;;;;0.40;0.40;;;;;;;18.53;64.29;99959.28;5011114;28;20022;-83
2023/08/11 00:42:05;;;;;;;0.30;0.30;;;;;;;18.47;64.25;99950.69;5010800;28;20168;-82
2023/08/11 00:44:32;;;;;;;0.43;0.43;;;;;;;18.49;63.92;99964.84;5010432;28;20029;-83
2023/08/11 00:46:57;;;;;;;1.40;0.73;;;;;;;18.46;64.13;99963.19;5010522;28;20034;-84
2023/08/11 00:49:23;;;;;;;0.68;0.65;;;;;;;18.35;64.35;99958.31;5011638;28;20040;-85
2023/08/11 00:55:12;;;;;;;1.30;0.82;;;;;;;18.34;65.30;99985.94;5011685;28;20052;-83
2023/08/11 00:57:48;;;;;;;0.57;0.55;;;;;;;18.08;64.98;99923.81;5010989;28;20030;-82
2023/08/11 01:00:15;;;;;;;0.75;0.75;;;;;;;18.21;65.25;99939.31;5010920;28;20058;-83
2023/08/11 01:06:11;;;;;;;0.40;0.40;;;;;;;18.29;66.03;99971.91;5011834;28;20065;-83
2023/08/11 01:12:02;;;;;;;0.90;0.90;;;;;;;18.23;66.41;99981.03;5015467;28;20113;-84
2023/08/11 01:14:38;;;;;;;0.70;0.70;;;;;;;18.11;66.26;99935.31;5013532;28;20056;-83
2023/08/11 01:20:27;;;;;;;1.15;0.77;;;;;;;18.20;65.77;99945.59;5015369;28;20052;-85
2023/08/11 01:22:57;;;;;;;1.30;0.80;;;;;;;18.05;65.97;99931.94;5013942;28;20156;-86
2023/08/11 01:28:53;;;;;;;0.80;0.70;;;;;;;17.93;66.29;99966.31;5015039;28;20029;-85
2023/08/11 01:31:43;;;;;;;1.25;0.73;;;;;;;18.04;66.27;99988.06;5014995;28;20091;-83
2023/08/11 01:37:33;;;;;;;0.77;0.60;;;;;;;17.92;66.45;99973.44;5015247;28;20400;-83
2023/08/11 01:43:51;;;;;;;0.90;0.73;;;;;;;17.95;66.86;99986.66;5015280;28;20083;-83
2023/08/11 01:49:55;;;;;;;9.52;1.17;;;;;;;17.89;67.30;99976.25;5014992;28;20049;-83
2023/08/11 01:56:29;;;;;;;1.13;0.50;;;;;;;17.97;67.89;99992.81;5015401;28;20037;-83
2023/08/11 01:59:14;;;;;;;0.10;0.10;;;;;;;17.76;67.62;99932.28;5015452;28;20041;-84
2023/08/11 02:01:41;;;;;;;0.60;0.60;;;;;;;18.16;67.36;99984.91;5012944;28;20042;-83
2023/08/11 02:07:29;;;;;;;2.10;1.10;;;;;;;17.99;67.73;99968.72;5014403;28;20507;-83
2023/08/11 02:13:37;;;;;;;1.00;0.93;;;;;;;18.05;67.84;99993.34;5014749;28;20084;-82
2023/08/11 02:16:21;;;;;;;0.93;0.60;;;;;;;17.87;68.00;99962.03;5014583;28;20030;-82
2023/08/11 02:18:47;;;;;;;0.80;0.80;;;;;;;17.99;68.14;99985.59;5013262;28;20030;-83
2023/08/11 02:21:23;;;;;;;0.68;0.68;;;;;;;18.10;66.54;99986.97;5013499;28;20373;-87
2023/08/11 02:23:48;;;;;;;1.20;0.55;;;;;;;17.70;67.19;99974.28;5013958;28;20416;-83
2023/08/11 02:26:15;;;;;;;0.68;0.55;;;;;;;17.73;67.13;99981.28;5013465;28;20041;-82
2023/08/11 02:28:41;;;;;;;0.30;0.30;;;;;;;17.80;66.74;99988.13;5013242;28;20041;-81
2023/08/11 02:31:08;;;;;;;0.68;0.50;;;;;;;17.57;67.16;99959.69;5011835;28;20529;-82
2023/08/11 02:33:34;;;;;;;0.45;0.45;;;;;;;17.87;67.14;99989.63;5013246;28;20061;-82
2023/08/11 02:36:00;;;;;;;0.75;0.50;;;;;;;17.57;67.88;99953.50;5012884;28;20033;-82
2023/08/11 02:41:56;;;;;;;2.30;0.88;;;;;;;17.65;68.17;99972.72;5014070;28;20040;-83
2023/08/11 02:44:27;;;;;;;0.98;0.77;;;;;;;17.50;67.84;99958.19;5013944;28;20026;-83
2023/08/11 02:47:19;;;;;;;0.90;0.90;;;;;;;17.79;66.67;99996.19;5013650;28;20036;-82
2023/08/11 02:49:44;;;;;;;1.65;0.88;;;;;;;17.59;67.15;99981.81;5013562;28;20427;-85
2023/08/11 02:52:11;;;;;;;0.65;0.65;;;;;;;17.49;67.87;99985.81;5013325;28;20030;-82
2023/08/11 02:54:37;;;;;;;0.60;0.38;;;;;;;17.38;68.02;99990.66;5012691;28;20033;-82
2023/08/11 02:57:02;;;;;;;0.73;0.60;;;;;;;17.41;68.31;99996.75;5013076;28;20042;-82
2023/08/11 02:59:29;;;;;;;4.18;0.80;;;;;;;17.49;67.80;99980.47;5013026;28;20537;-81
2023/08/11 03:01:55;;;;;;;1.17;1.00;;;;;;;17.53;68.10;99990.06;5012798;28;20400;-84
2023/08/11 03:04:20;;;;;;;0.70;0.57;;;;;;;17.33;68.31;99965.06;5012120;28;20041;-83
2023/08/11 03:06:47;;;;;;;1.55;0.90;;;;;;;17.59;68.27;100000.50;5011991;28;20411;-82
2023/08/11 03:09:13;;;;;;;0.30;0.30;;;;;;;17.33;68.74;99969.50;5011799;28;20045;-84
2023/08/11 03:11:38;;;;;;;0.40;0.38;;;;;;;17.54;68.45;100002.47;5010346;28;20026;-83
2023/08/11 03:14:04;;;;;;;0.93;0.82;;;;;;;17.31;68.68;99974.91;5010139;28;20030;-85
2023/08/11 03:16:31;;;;;;;1.52;1.00;;;;;;;17.46;68.08;99994.78;5011314;28;20033;-84
2023/08/11 03:18:57;;;;;;;4.32;0.68;;;;;;;17.40;68.66;100013.69;5010930;28;20030;-84
2023/08/11 03:21:22;;;;;;;0.63;0.60;;;;;;;17.39;68.54;100019.06;5011011;28;20475;-87
2023/08/11 03:23:47;;;;;;;0.40;0.40;;;;;;;17.16;67.92;99986.16;5009949;28;20060;-83
2023/08/11 03:26:13;;;;;;;0.50;0.50;;;;;;;17.24;67.98;100013.41;5010069;28;20041;-84
2023/08/11 03:28:40;;;;;;;0.77;0.77;;;;;;;17.36;67.86;100039.59;5010884;28;20053;-84
2023/08/11 03:31:05;;;;;;;5.93;0.82;;;;;;;17.25;67.52;100011.59;5009721;28;20531;-85
2023/08/11 03:33:31;;;;;;;0.77;0.65;;;;;;;17.45;67.82;100043.69;5010155;28;20041;-85
2023/08/11 03:35:57;;;;;;;1.80;1.20;;;;;;;17.22;68.29;100019.72;5009631;28;20120;-85
2023/08/11 03:38:22;;;;;;;0.35;0.35;;;;;;;17.44;67.45;100030.44;4996693;28;20105;-87
2023/08/11 03:40:51;;;;;;;1.70;1.45;;;;;;;17.42;67.74;100034.97;4997039;28;20022;-90
2023/08/11 03:43:17;;;;;;;2.58;1.40;;;;;;;17.34;68.74;100049.44;5010235;28;20048;-86
2023/08/11 03:45:42;;;;;;;1.30;1.20;;;;;;;17.34;69.12;100049.44;5008938;28;20041;-84
2023/08/11 03:48:08;;;;;;;0.77;0.70;;;;;;;17.15;69.37;100006.59;5009941;28;20121;-82
2023/08/11 03:50:33;;;;;;;0.98;0.90;;;;;;;17.49;68.89;100045.34;5009548;28;20026;-81
2023/08/11 03:52:59;;;;;;;0.75;0.75;;;;;;;17.40;69.57;100042.16;5010198;28;20030;-85
2023/08/11 03:55:24;;;;;;;0.85;0.85;;;;;;;17.50;69.50;100043.53;5011267;28;20368;-84
2023/08/11 03:57:49;;;;;;;0.32;0.32;;;;;;;17.53;69.91;100044.28;5011146;28;20053;-86
2023/08/11 04:03:37;;;;;;;1.08;1.00;;;;;;;17.47;69.00;100041.88;5012483;28;20411;-83
2023/08/11 04:06:03;;;;;;;0.30;0.30;;;;;;;17.43;69.35;100034.03;5010811;28;20029;-82
2023/08/11 04:08:29;;;;;;;2.25;2.05;;;;;;;17.56;68.59;100013.09;5010871;28;20510;-84
2023/08/11 04:10:55;;;;;;;5.53;1.20;;;;;;;17.87;68.59;100059.00;5011988;28;20034;-86
2023/08/11 04:13:21;;;;;;;1.00;0.90;;;;;;;17.85;68.24;100036.81;5009998;28;20050;-84
2023/08/11 04:15:47;;;;;;;1.50;1.40;;;;;;;17.87;67.66;100032.31;5011337;28;20081;-82
2023/08/11 04:18:13;;;;;;;1.40;1.30;;;;;;;17.89;68.02;100034.94;5011105;28;20037;-84
2023/08/11 04:20:39;;;;;;;1.70;1.35;;;;;;;18.00;67.87;100032.72;5011186;28;20034;-83
2023/08/11 04:23:05;;;;;;;1.33;1.10;;;;;;;18.17;67.91;100072.06;5010736;28;20049;-85
2023/08/11 04:25:30;;;;;;;2.08;1.52;;;;;;;18.19;68.14;100056.00;5011463;28;20033;-86
2023/08/11 04:27:56;;;;;;;1.85;1.38;;;;;;;18.13;68.56;100049.09;5010959;28;20048;-84
2023/08/11 04:30:21;;;;;;;5.05;2.03;;;;;;;18.31;67.69;100046.63;5011569;28;20030;-85
2023/08/11 04:32:48;;;;;;;0.50;0.45;;;;;;;18.48;68.09;100064.63;5011483;28;20037;-87
2023/08/11 04:35:14;;;;;;;0.90;0.75;;;;;;;18.51;67.97;100062.69;5011223;28;20151;-83
2023/08/11 04:37:41;;;;;;;1.38;0.93;;;;;;;18.60;67.73;100064.97;5010553;28;20030;-87
2023/08/11 04:40:10;;;;;;;1.80;0.80;;;;;;;18.55;67.84;100029.56;5010099;28;20091;-84
2023/08/11 04:42:39;;;;;;;2.90;1.50;;;;;;;18.88;66.98;100036.22;4996561;28;20041;-80
2023/08/11 04:45:04;;;;;;;8.48;1.65;;;;;;;18.90;66.99;100037.00;5024997;28;20029;-83
2023/08/11 04:47:30;;;;;;;0.93;0.80;;;;;;;18.92;67.04;100044.03;5009841;28;20034;-87
2023/08/11 04:49:55;;;;;;;0.95;0.60;;;;;;;19.23;66.93;100069.41;5010050;28;20116;-82
2023/08/11 04:52:21;;;;;;;1.55;1.00;;;;;;;19.03;67.16;100051.59;4993872;28;20597;-83
2023/08/11 04:54:47;;;;;;;0.80;0.80;;;;;;;19.29;67.01;100065.56;5009981;28;20037;-82
2023/08/11 04:57:12;;;;;;;1.55;1.23;;;;;;;19.36;66.80;100055.47;5005805;28;20038;-83
2023/08/11 04:59:38;;;;;;;1.90;1.75;;;;;;;19.45;66.97;100068.44;5010372;28;20030;-82
2023/08/11 05:02:03;;;;;;;2.08;1.10;;;;;;;19.49;65.81;100070.91;5010442;28;20026;-89
2023/08/11 05:04:29;;;;;;;1.83;1.50;;;;;;;19.52;64.94;100040.44;5009028;28;20029;-88
2023/08/11 05:06:54;;;;;;;2.00;1.85;;;;;;;19.90;64.38;100067.25;5010611;28;20026;-84
2023/08/11 05:09:20;;;;;;;0.52;0.50;;;;;;;20.25;63.50;100075.38;5010079;28;20033;-91
2023/08/11 05:11:45;;;;;;;2.17;0.90;;;;;;;20.30;62.59;100051.91;5004287;28;20039;-91
2023/08/11 05:14:14;;;;;;;1.95;0.50;;;;;;;20.30;61.94;100037.66;5003347;28;20405;-90
2023/08/11 05:16:39;;;;;;;1.13;0.93;;;;;;;20.58;61.81;100035.31;5013865;28;20439;-89
2023/08/11 05:19:05;;;;;;;1.65;1.42;;;;;;;21.03;61.57;100059.84;4999970;28;20433;-82
2023/08/11 05:21:30;;;;;;;2.60;1.70;;;;;;;21.05;60.81;100057.97;5009338;28;20602;-92
2023/08/11 05:23:56;;;;;;;1.25;1.13;;;;;;;21.04;60.99;100063.41;5008357;28;20062;-94
2023/08/11 05:26:22;;;;;;;1.45;1.27;;;;;;;21.05;60.30;100020.41;5007527;28;20057;-94
2023/08/11 05:28:47;;;;;;;1.95;1.52;;;;;;;21.58;58.47;100068.56;4990899;28;20058;-92
2023/08/11 05:31:13;;;;;;;2.42;0.82;;;;;;;21.45;57.00;100028.97;4989487;28;20037;-91
2023/08/11 05:33:38;;;;;;;1.00;0.80;;;;;;;21.86;56.47;100061.69;5009609;28;20026;-89
2023/08/11 05:36:04;;;;;;;1.30;0.68;;;;;;;21.96;55.66;100062.91;4998259;28;20488;-91
2023/08/11 05:38:30;;;;;;;2.08;1.13;;;;;;;22.13;55.44;100054.75;5008787;28;20072;-91
2023/08/11 05:40:56;;;;;;;0.55;0.40;;;;;;;22.21;54.85;100021.19;5001707;28;20506;-91
2023/08/11 05:43:21;;;;;;;1.02;0.63;;;;;;;22.44;55.08;100050.31;5008814;28;20050;-87
2023/08/11 05:45:47;;;;;;;1.20;1.10;;;;;;;22.68;53.89;100044.44;5009668;28;20029;-88
2023/08/11 05:48:13;;;;;;;0.93;0.77;;;;;;;22.75;52.82;100042.25;5008471;28;20030;-89
2023/08/11 05:50:39;;;;;;;1.00;0.80;;;;;;;22.85;51.41;100020.09;4997957;28;20089;-91
2023/08/11 05:53:05;;;;;;;0.68;0.68;;;;;;;23.06;50.84;100062.75;4995108;28;20029;-93
2023/08/11 05:55:30;;;;;;;0.55;0.47;;;;;;;23.03;50.33;100019.91;5007130;28;20420;-89
2023/08/11 05:57:56;;;;;;;0.55;0.38;;;;;;;23.41;49.17;100049.00;4997830;28;20103;-89
2023/08/11 06:00:22;;;;;;;2.70;0.93;;;;;;;23.27;49.54;100040.91;4999442;28;20042;-92
2023/08/11 06:02:47;;;;;;;0.80;0.70;;;;;;;23.21;49.52;100032.25;4997602;28;20029;-89
2023/08/11 06:05:15;;;;;;;1.58;1.00;;;;;;;23.44;49.45;100032.66;5001136;28;20053;-92
2023/08/11 06:07:40;;;;;;;1.27;1.00;;;;;;;23.65;48.82;100061.84;4991178;28;20116;-87
2023/08/11 06:10:07;;;;;;;1.35;0.50;;;;;;;23.57;48.98;100033.59;5012125;28;20485;-89
2023/08/11 06:12:32;;;;;;;0.70;0.45;;;;;;;24.03;47.67;100070.19;5012786;28;20113;-92
2023/08/11 06:14:58;;;;;;;0.45;0.45;;;;;;;24.29;47.07;100073.00;5012420;28;20137;-92
2023/08/11 06:17:24;;;;;;;1.42;0.60;;;;;;;24.20;46.11;100033.19;5012543;28;20435;-88
2023/08/11 06:19:50;;;;;;;1.25;0.90;;;;;;;24.36;47.29;100054.59;5012837;28;20060;-92
2023/08/11 06:22:16;;;;;;;1.55;0.90;;;;;;;24.53;46.20;100075.03;5011060;28;20069;-86
2023/08/11 06:24:41;;;;;;;1.02;0.70;;;;;;;24.40;45.99;100056.97;5012920;28;20034;-89
2023/08/11 06:27:07;;;;;;;1.27;0.77;;;;;;;24.33;46.42;100046.69;5012100;28;20026;-90
2023/08/11 06:29:35;;;;;;;0.60;0.60;;;;;;;24.12;46.59;100039.94;5013090;28;20137;-89
2023/08/11 06:32:01;;;;;;;0.75;0.60;;;;;;;23.96;46.43;100028.47;5012382;28;20029;-88
2023/08/11 06:34:27;;;;;;;0.90;0.60;;;;;;;24.45;45.92;100071.03;5010286;28;20100;-92
2023/08/11 06:36:52;;;;;;;1.48;1.13;;;;;;;24.28;45.52;100047.91;4994100;28;20029;-90
2023/08/11 06:39:17;;;;;;;1.70;0.70;;;;;;;24.24;45.95;100022.09;4998324;28;20042;-87
2023/08/11 06:41:43;;;;;;;0.57;0.50;;;;;;;24.63;46.54;100051.91;4992250;28;20121;-96
2023/08/11 06:44:10;;;;;;;1.35;1.00;;;;;;;25.29;44.30;100068.94;4993637;28;20445;-93
2023/08/11 06:46:35;;;;;;;1.98;0.70;;;;;;;24.95;44.48;100063.19;4993001;28;20073;-92
2023/08/11 06:49:02;;;;;;;1.05;0.95;;;;;;;25.01;43.83;100061.91;4991016;28;20034;-93
2023/08/11 06:51:28;;;;;;;1.33;0.60;;;;;;;25.11;44.18;100081.84;4994273;28;20030;-92
2023/08/11 06:53:54;;;;;;;0.93;0.60;;;;;;;25.29;43.85;100066.25;5008498;28;20057;-95
2023/08/11 06:56:20;;;;;;;1.13;0.75;;;;;;;25.32;43.74;100052.53;4993142;28;20030;-94
2023/08/11 06:58:45;;;;;;;0.55;0.55;;;;;;;25.60;42.60;100072.16;4991902;28;20200;-91
2023/08/11 07:01:11;;;;;;;2.92;1.23;;;;;;;25.46;42.76;100081.25;5007358;28;20525;-94
2023/08/11 07:03:36;;;;;;;2.75;1.98;;;;;;;25.40;42.91;100067.34;4991425;28;20034;-95
2023/08/11 07:06:03;;;;;;;0.82;0.45;;;;;;;25.51;43.57;100048.53;5008678;28;20042;-96
2023/08/11 07:08:29;;;;;;;3.25;2.08;;;;;;;25.94;41.87;100066.16;4991708;28;20137;-93
2023/08/11 07:10:55;;;;;;;0.52;0.47;;;;;;;26.10;42.42;100085.69;4990835;28;20034;-95
2023/08/11 07:13:20;;;;;;;1.20;0.65;;;;;;;26.00;41.55;100055.78;5007633;28;20476;-89
2023/08/11 07:15:46;;;;;;;0.43;0.43;;;;;;;26.23;42.17;100059.47;4992057;28;20042;-90
2023/08/11 07:18:12;;;;;;;1.15;0.98;;;;;;;26.74;39.65;100084.56;4991236;28;20026;-84
2023/08/11 07:20:43;;;;;;;1.15;0.90;;;;;;;26.83;39.76;100081.13;4994321;28;20076;-92
2023/08/11 07:23:10;;;;;;;1.08;0.90;;;;;;;26.92;40.03;100072.31;4990037;28;20047;-84
2023/08/11 07:25:35;;;;;;;0.40;0.38;;;;;;;27.07;38.78;100093.78;4994178;28;20042;-95
2023/08/11 07:28:01;;;;;;;0.63;0.35;;;;;;;26.91;40.23;100073.31;4977331;28;20038;-87
2023/08/11 07:30:31;;;;;;;0.55;0.30;;;;;;;26.95;38.74;100063.09;4992998;28;20084;-90
2023/08/11 07:32:57;;;;;;;0.57;0.40;;;;;;;27.14;38.98;100070.63;5009207;28;20061;-92
2023/08/11 07:35:24;;;;;;;0.80;0.57;;;;;;;27.40;38.01;100094.84;5011201;28;20050;-92
2023/08/11 07:37:50;;;;;;;0.65;0.65;;;;;;;27.12;38.00;100091.56;5007906;28;20030;-95
2023/08/11 07:40:16;;;;;;;0.70;0.52;;;;;;;27.55;37.59;100074.66;5008753;28;20042;-94
2023/08/11 07:42:42;;;;;;;0.22;0.22;;;;;;;27.64;36.96;100073.91;5010952;28;20030;-94
2023/08/11 07:45:09;;;;;;;0.40;0.40;;;;;;;27.68;36.44;100042.00;5010088;28;20040;-94
2023/08/11 07:47:34;;;;;;;1.35;1.02;;;;;;;28.23;35.54;100074.59;5012202;28;20069;-95
2023/08/11 07:50:00;;;;;;;0.40;0.30;;;;;;;27.79;35.83;100070.94;5010622;28;20061;-96
2023/08/11 07:52:26;;;;;;;0.68;0.68;;;;;;;27.87;36.01;100095.59;5012480;28;20403;-96
2023/08/11 07:54:51;;;;;;;1.33;0.95;;;;;;;28.06;37.15;100076.00;5010236;28;20041;-92
2023/08/11 07:57:17;;;;;;;0.50;0.40;;;;;;;28.03;34.73;100071.69;5010922;28;20057;-92
2023/08/11 07:59:42;;;;;;;0.75;0.52;;;;;;;28.16;35.24;100047.13;5011873;28;20040;-96
2023/08/11 08:02:08;;;;;;;1.05;0.68;;;;;;;28.71;35.39;100059.78;5010770;28;20034;-94
2023/08/11 08:04:34;;;;;;;0.70;0.52;;;;;;;28.35;34.53;100080.84;5011459;28;20034;-94
2023/08/11 08:07:00;;;;;;;30.00;14.00;;;;;;;28.65;33.16;100069.28;5010851;28;20044;-93
2023/08/11 08:09:26;;;;;;;5.00;2.45;;;;;;;28.29;34.83;100067.81;5012064;28;20030;-93
2023/08/11 08:11:51;;;;;;;0.30;0.30;;;;;;;28.65;34.85;100066.56;5010980;28;20404;-93
2023/08/11 08:14:17;;;;;;;0.68;0.57;;;;;;;28.91;34.69;100085.22;5011315;28;21147;-92
2023/08/11 08:16:44;;;;;;;0.70;0.43;;;;;;;28.63;34.66;100093.00;5010926;28;20112;-91
2023/08/11 08:19:11;;;;;;;0.40;0.40;;;;;;;28.86;34.36;100046.75;5010134;28;20028;-92
2023/08/11 08:21:37;;;;;;;0.52;0.50;;;;;;;29.54;31.98;100066.16;5010304;28;20057;-91
2023/08/11 08:24:04;;;;;;;0.68;0.50;;;;;;;29.51;32.11;100090.03;5010261;28;20108;-91
2023/08/11 08:26:31;;;;;;;0.65;0.63;;;;;;;29.39;33.22;100078.38;5010674;28;20033;-90
2023/08/11 08:28:56;;;;;;;4.55;0.70;;;;;;;29.84;32.42;100071.75;5010211;28;20527;-93
2023/08/11 08:31:22;;;;;;;0.65;0.65;;;;;;;29.57;34.11;100065.88;5010665;28;20161;-91
2023/08/11 08:33:47;;;;;;;1.45;0.35;;;;;;;29.33;32.04;100087.06;5010240;28;20072;-93
2023/08/11 08:36:13;;;;;;;0.63;0.50;;;;;;;29.36;31.27;100065.91;5012422;28;20121;-95
2023/08/11 08:38:39;;;;;;;1.10;0.77;;;;;;;29.60;31.71;100062.91;5016339;28;20041;-95
2023/08/11 08:41:08;;;;;;;1.27;0.85;;;;;;;29.39;33.40;100035.78;5016700;28;20037;-96
2023/08/11 08:43:34;;;;;;;12.50;0.80;;;;;;;29.60;32.79;100068.34;5016398;28;20029;-95
2023/08/11 08:46:02;;;;;;;2.05;1.38;;;;;;;29.82;32.99;100050.13;5014056;28;20032;-89
2023/08/11 08:48:34;;;;;;;0.88;0.80;;;;;;;30.08;32.22;100050.47;5022988;28;20041;-95
2023/08/11 08:50:59;;;;;;;1.00;0.45;;;;;;;29.79;31.02;100036.78;5013254;28;20026;-93
2023/08/11 08:53:25;;;;;;;0.82;0.57;;;;;;;29.85;31.45;100041.69;5016157;28;20385;-95
2023/08/11 08:55:51;;;;;;;0.93;0.73;;;;;;;29.65;33.29;100002.69;5016233;28;20018;-95
2023/08/11 08:58:17;;;;;;;2.83;0.60;;;;;;;29.64;30.12;100055.31;5010041;28;20034;-90
2023/08/11 09:00:43;;;;;;;1.52;0.40;;;;;;;29.59;31.17;100057.59;5012215;28;20030;-94
2023/08/11 09:03:09;;;;;;;0.22;0.20;;;;;;;29.63;31.37;100061.78;5011093;28;20030;-95
2023/08/11 09:05:35;;;;;;;0.40;0.40;;;;;;;29.67;31.41;100051.47;5006305;28;20488;-95
2023/08/11 09:08:01;;;;;;;0.60;0.50;;;;;;;30.03;29.14;100031.00;4997408;28;20137;-92
2023/08/11 09:10:28;;;;;;;0.20;0.20;;;;;;;30.49;29.03;100025.91;5005290;28;20037;-94
2023/08/11 09:12:55;;;;;;;1.27;0.60;;;;;;;30.79;27.87;100041.22;4990175;28;20026;-93
2023/08/11 09:15:21;;;;;;;0.90;0.47;;;;;;;30.82;28.68;100054.53;4973489;28;20141;-91
2023/08/11 09:17:47;;;;;;;1.80;0.90;;;;;;;30.95;29.83;100042.47;4989405;28;20113;-92
2023/08/11 09:20:17;;;;;;;1.00;0.80;;;;;;;30.82;28.75;100043.66;4990925;28;20197;-90
2023/08/11 09:22:43;;;;;;;0.40;0.40;;;;;;;30.38;29.05;100024.16;4991962;28;20042;-87
2023/08/11 09:25:12;;;;;;;0.85;0.65;;;;;;;30.18;28.41;100058.63;5010536;28;20439;-96
2023/08/11 09:27:37;;;;;;;0.13;0.13;;;;;;;30.13;29.42;100031.03;5009183;28;20040;-91
2023/08/11 09:30:04;;;;;;;0.60;0.47;;;;;;;30.05;28.82;100012.69;5011475;28;20102;-89
2023/08/11 09:32:33;;;;;;;0.50;0.50;;;;;;;29.96;29.98;100019.81;5010902;28;20507;-95
2023/08/11 09:35:12;;;;;;;0.20;0.20;;;;;;;29.97;29.85;100005.22;5014080;28;20484;-94
2023/08/11 09:37:37;;;;;;;2.95;1.50;;;;;;;30.05;27.91;100009.13;5013234;28;20033;-94
2023/08/11 09:40:04;;;;;;;5.35;1.75;;;;;;;30.16;28.96;100009.81;5010774;28;20034;-89
2023/08/11 09:42:31;;;;;;;1.27;0.98;;;;;;;30.70;29.91;100028.47;5012482;28;20038;-89
2023/08/11 09:44:56;;;;;;;0.50;0.50;;;;;;;30.98;28.73;100037.63;5013114;28;20121;-95
2023/08/11 09:47:22;;;;;;;0.55;0.45;;;;;;;30.94;28.57;100014.41;5011145;28;20120;-93
2023/08/11 09:49:48;;;;;;;1.38;0.55;;;;;;;30.87;28.58;99986.03;5011981;28;20466;-88
2023/08/11 09:52:15;;;;;;;1.80;0.43;;;;;;;30.59;27.64;100004.16;4992526;28;20568;-91
2023/08/11 09:54:44;;;;;;;0.30;0.20;;;;;;;30.23;30.04;100006.53;4992527;28;20036;-91
2023/08/11 09:57:13;;;;;;;0.30;0.30;;;;;;;30.41;27.80;100023.03;4991761;28;20457;-91
2023/08/11 09:59:40;;;;;;;0.63;0.50;;;;;;;30.75;28.64;100004.38;4993557;28;20034;-91
2023/08/11 10:02:12;;;;;;;1.95;0.70;;;;;;;31.04;27.19;100003.50;5009562;28;20045;-88
2023/08/11 10:04:56;;;;;;;0.47;0.35;;;;;;;31.11;28.51;100017.38;4995291;28;20030;-92
2023/08/11 10:07:24;;;;;;;;;;;;;;;31.39;27.94;100030.06;5003425;28;20045;-92
2023/08/11 10:09:51;;;;;;;0.45;0.30;;;;;;;31.09;28.11;100003.91;5004290;28;20312;-91
2023/08/11 10:12:18;;;;;;;0.88;0.40;;;;;;;31.28;28.51;100011.19;5007177;28;20075;-94
2023/08/11 10:14:44;;;;;;;0.10;0.10;;;;;;;31.09;27.71;99973.09;5006025;28;20060;-90
2023/08/11 10:17:24;;;;;;;1.27;0.47;;;;;;;31.32;26.98;100034.38;5008917;28;20519;-96
2023/08/11 10:19:55;;;;;;;0.63;0.50;;;;;;;31.42;26.68;100016.13;5013496;28;20038;-91
2023/08/11 10:22:21;;;;;;;0.47;0.22;;;;;;;30.60;27.17;100019.44;4998263;28;20047;-86
2023/08/11 10:24:47;;;;;;;0.22;0.20;;;;;;;30.13;27.90;100018.25;5000622;28;20034;-94
2023/08/11 10:27:14;;;;;;;1.05;0.63;;;;;;;29.79;27.91;99996.00;5001451;28;20413;-92
2023/08/11 10:29:47;;;;;;;0.85;0.57;;;;;;;29.71;28.32;99976.81;4996709;28;20378;-89
2023/08/11 10:32:14;;;;;;;0.40;0.25;;;;;;;30.15;27.87;99986.38;5007273;28;20429;-88
2023/08/11 10:34:40;;;;;;;0.25;0.25;;;;;;;30.27;27.42;99999.81;4991990;28;20074;-90
2023/08/11 10:37:06;;;;;;;1.58;0.57;;;;;;;30.38;27.52;99986.06;4994502;28;20030;-89
2023/08/11 10:39:32;;;;;;;0.10;0.10;;;;;;;30.36;27.64;99969.88;4991999;28;20034;-92
2023/08/11 10:41:57;;;;;;;0.40;0.30;;;;;;;30.30;27.67;99972.31;4994759;28;20027;-90
2023/08/11 10:44:28;;;;;;;0.40;0.28;;;;;;;30.42;27.45;99973.06;5011521;28;20120;-96
2023/08/11 10:46:59;;;;;;;0.20;0.20;;;;;;;30.66;28.23;99983.47;5026498;28;20040;-93
2023/08/11 10:49:34;;;;;;;3.00;0.50;;;;;;;30.93;27.41;100000.94;5006511;28;20046;-86
2023/08/11 10:52:01;;;;;;;0.40;0.38;;;;;;;31.22;27.58;99996.28;4991446;28;20100;-94
2023/08/11 10:54:27;;;;;;;0.30;0.30;;;;;;;30.65;28.08;99984.50;4995215;28;20034;-93
2023/08/11 10:56:53;;;;;;;0.22;0.22;;;;;;;30.56;28.34;99945.41;5005631;28;20034;-92
2023/08/11 10:59:28;;;;;;;0.63;0.30;;;;;;;31.04;26.95;99949.88;4992441;28;20037;-90
2023/08/11 11:01:56;;;;;;;0.28;0.22;;;;;;;31.28;26.85;99974.88;5008250;28;20034;-91
2023/08/11 11:04:26;;;;;;;5.68;1.40;;;;;;;31.35;27.19;99976.00;4992819;28;20113;-95
2023/08/11 11:06:51;;;;;;;0.77;0.57;;;;;;;31.49;26.44;99980.94;5009337;28;20038;-87
2023/08/11 11:09:19;;;;;;;0.20;0.20;;;;;;;31.19;26.68;99963.88;5012831;28;21924;-88
2023/08/11 11:11:46;;;;;;;0.60;0.40;;;;;;;31.36;28.54;99962.22;5010450;28;20034;-91
2023/08/11 11:14:13;;;;;;;0.40;0.30;;;;;;;31.58;26.15;99976.50;5009557;28;20030;-89
2023/08/11 11:16:39;;;;;;;0.88;0.40;;;;;;;31.72;26.15;99951.41;5011235;28;20099;-91
2023/08/11 11:19:09;;;;;;;3.83;1.75;;;;;;;31.88;26.10;99982.59;5010505;28;20080;-89
2023/08/11 11:21:35;;;;;;;0.43;0.32;;;;;;;31.34;27.31;99957.91;5010395;28;20049;-87
2023/08/11 11:24:01;;;;;;;0.73;0.57;;;;;;;31.02;29.16;99962.78;5009213;28;20554;-89
2023/08/11 11:26:29;;;;;;;1.05;0.50;;;;;;;30.87;28.13;99964.25;4993548;28;20035;-88
2023/08/11 11:28:57;;;;;;;0.50;0.50;;;;;;;30.62;28.58;99973.91;4991288;28;20256;-86
2023/08/11 11:31:25;;;;;;;0.95;0.47;;;;;;;30.38;28.66;99972.44;4990312;28;20113;-92
2023/08/11 11:33:51;;;;;;;0.10;0.10;;;;;;;30.21;29.60;99974.03;4997879;28;20034;-89
2023/08/11 11:36:21;;;;;;;0.98;0.73;;;;;;;29.65;30.16;99983.66;4995486;28;20122;-88
2023/08/11 11:38:48;;;;;;;0.20;0.20;;;;;;;30.05;29.89;99966.44;5005846;28;20410;-88
2023/08/11 11:41:15;;;;;;;1.70;0.52;;;;;;;30.17;30.07;99970.75;4992987;28;20046;-87
2023/08/11 11:43:43;;;;;;;0.20;0.20;;;;;;;30.61;29.88;99947.69;5005233;28;20061;-88
2023/08/11 11:46:15;;;;;;;1.75;0.88;;;;;;;30.83;28.46;99958.25;4990829;28;20081;-87
2023/08/11 11:48:44;;;;;;;1.38;0.60;;;;;;;31.16;30.12;99960.59;4990053;28;20118;-88
2023/08/11 11:51:16;;;;;;;0.90;0.20;;;;;;;31.24;28.37;99952.53;4990546;28;20031;-88
2023/08/11 11:53:42;;;;;;;0.25;0.25;;;;;;;31.17;27.80;99956.84;4989664;28;20154;-89
2023/08/11 11:56:08;;;;;;;0.80;0.50;;;;;;;31.44;27.96;99953.28;4990431;28;20034;-88
2023/08/11 11:58:37;;;;;;;0.80;0.32;;;;;;;31.54;26.43;99969.63;4990983;28;20488;-90
2023/08/11 12:01:20;;;;;;;0.20;0.20;;;;;;;31.31;27.00;99942.75;4991060;28;20026;-88
2023/08/11 12:03:49;;;;;;;0.60;0.47;;;;;;;31.47;27.01;99950.25;4990911;28;20113;-88
2023/08/11 12:06:18;;;;;;;3.58;1.08;;;;;;;31.39;25.74;99937.41;5005621;28;20433;-87
2023/08/11 12:08:44;;;;;;;1.73;1.08;;;;;;;31.60;25.71;99958.09;5010483;28;20401;-87
2023/08/11 12:11:15;;;;;;;2.15;0.30;;;;;;;32.01;25.45;99941.31;5009849;28;20034;-88
2023/08/11 12:13:44;;;;;;;0.28;0.20;;;;;;;31.97;26.12;99913.50;5010923;28;20037;-87